Time;durP1;ratioP1;P1;durP2;ratioP2;P2;SDS_P1;SDS_P2;PMS_P1;PMS_P2;Temp;Humidity;BMP_temperature;BMP_pressure;BME280_temperature;BME280_humidity;BME280_pressure;Samples;Min_cycle;Max_cycle;Signal;HPM_P1;HPM_P2
2024/02/27 00:01:16;;;;;;;2.45;0.95;;;3.40;99.90;;;;;;5088448;28;20035;-69
2024/02/27 00:03:42;;;;;;;1.25;1.00;;;3.40;99.90;;;;;;5083059;28;20088;-70
2024/02/27 00:06:08;;;;;;;2.40;1.00;;;3.40;99.90;;;;;;5079893;28;20543;-69
2024/02/27 00:08:34;;;;;;;3.45;1.25;;;3.40;99.90;;;;;;5084497;28;20047;-69
2024/02/27 00:11:02;;;;;;;0.90;0.65;;;3.30;99.90;;;;;;5071627;28;20161;-70
2024/02/27 00:13:27;;;;;;;1.25;0.60;;;3.30;99.90;;;;;;5070743;28;20458;-69
2024/02/27 00:15:53;;;;;;;1.80;1.23;;;3.30;99.90;;;;;;5087615;28;20043;-69
2024/02/27 00:18:19;;;;;;;0.38;0.38;;;3.30;99.90;;;;;;5086437;28;20510;-70
2024/02/27 00:20:45;;;;;;;1.40;0.57;;;3.20;99.90;;;;;;5069751;28;20111;-70
2024/02/27 00:23:12;;;;;;;3.90;2.40;;;3.10;99.90;;;;;;5086837;28;20036;-70
2024/02/27 00:25:37;;;;;;;1.48;0.85;;;3.20;99.90;;;;;;5102886;28;20137;-70
2024/02/27 00:28:03;;;;;;;2.08;0.70;;;3.10;99.90;;;;;;5067763;28;20063;-70
2024/02/27 00:30:29;;;;;;;1.85;0.95;;;3.10;99.90;;;;;;5083883;28;20189;-69
2024/02/27 00:32:55;;;;;;;2.90;1.00;;;3.10;99.90;;;;;;5088517;28;20127;-71
2024/02/27 00:35:20;;;;;;;0.60;0.40;;;3.10;99.90;;;;;;5087765;28;20036;-69
2024/02/27 00:37:46;;;;;;;1.13;0.85;;;3.00;99.90;;;;;;5085443;28;20046;-69
2024/02/27 00:40:12;;;;;;;1.02;0.70;;;3.00;99.90;;;;;;5090111;28;20071;-69
2024/02/27 00:42:38;;;;;;;1.63;1.15;;;2.90;99.90;;;;;;5087123;28;20036;-69
2024/02/27 00:45:05;;;;;;;3.42;1.00;;;2.80;99.90;;;;;;5088309;28;20055;-69
2024/02/27 00:47:31;;;;;;;0.95;0.45;;;2.80;99.90;;;;;;5102049;28;20532;-70
2024/02/27 00:49:57;;;;;;;2.60;1.45;;;2.70;99.90;;;;;;5085715;28;20036;-70
2024/02/27 00:52:24;;;;;;;1.38;0.90;;;2.70;99.90;;;;;;5087939;28;20052;-69
2024/02/27 00:54:49;;;;;;;2.63;1.33;;;2.70;99.90;;;;;;5066855;28;20498;-69
2024/02/27 00:57:15;;;;;;;1.10;1.00;;;2.70;99.90;;;;;;5071981;28;20036;-69
2024/02/27 00:59:41;;;;;;;1.27;0.93;;;2.70;99.90;;;;;;5083615;28;20047;-70
2024/02/27 01:02:08;;;;;;;1.42;0.77;;;2.70;99.90;;;;;;5071315;28;20032;-70
2024/02/27 01:04:34;;;;;;;1.00;0.63;;;2.70;99.90;;;;;;5069138;28;20036;-70
2024/02/27 01:07:00;;;;;;;1.08;0.85;;;2.70;99.90;;;;;;5087991;28;20066;-69
2024/02/27 01:09:25;;;;;;;0.80;0.65;;;2.60;99.90;;;;;;5086685;28;20382;-69
2024/02/27 01:11:51;;;;;;;0.68;0.38;;;2.60;99.90;;;;;;5086497;28;20036;-69
2024/02/27 01:14:17;;;;;;;0.68;0.55;;;2.70;99.90;;;;;;5086674;28;20123;-69
2024/02/27 01:16:43;;;;;;;3.03;0.93;;;2.60;99.90;;;;;;5084303;28;20122;-69
2024/02/27 01:19:11;;;;;;;0.63;0.63;;;2.60;99.90;;;;;;5070328;28;20063;-69
2024/02/27 01:21:42;;;;;;;0.63;0.47;;;2.70;99.90;;;;;;5091306;28;20450;-69
2024/02/27 01:24:08;;;;;;;1.38;0.77;;;2.60;99.90;;;;;;5106845;28;20096;-69
2024/02/27 01:26:33;;;;;;;0.63;0.63;;;2.50;99.90;;;;;;5090924;28;20040;-69
2024/02/27 01:29:00;;;;;;;0.90;0.52;;;2.50;99.90;;;;;;5089811;28;20124;-70
2024/02/27 01:31:25;;;;;;;1.10;0.60;;;2.60;99.90;;;;;;5090943;28;20107;-69
2024/02/27 01:33:51;;;;;;;0.50;0.30;;;2.50;99.90;;;;;;5089179;28;20067;-70
2024/02/27 01:36:17;;;;;;;4.28;0.90;;;2.50;99.90;;;;;;5091614;28;20048;-69
2024/02/27 01:38:42;;;;;;;1.17;0.85;;;2.60;99.90;;;;;;5086556;28;20043;-69
2024/02/27 01:41:08;;;;;;;1.70;1.35;;;2.50;99.90;;;;;;5088414;28;20134;-69
2024/02/27 01:43:34;;;;;;;1.95;0.68;;;2.60;99.90;;;;;;5089460;28;20188;-70
2024/02/27 01:46:10;;;;;;;1.25;0.85;;;2.50;99.90;;;;;;5091168;28;20051;-69
2024/02/27 01:48:36;;;;;;;2.88;0.75;;;2.60;99.90;;;;;;5069113;28;20169;-70
2024/02/27 01:51:03;;;;;;;1.88;1.02;;;2.60;99.90;;;;;;5086182;28;20071;-69
2024/02/27 01:53:29;;;;;;;3.90;0.80;;;2.70;99.90;;;;;;5088605;28;20036;-69
2024/02/27 01:55:55;;;;;;;0.52;0.52;;;2.70;99.90;;;;;;5089506;28;20510;-70
2024/02/27 01:58:22;;;;;;;1.02;0.80;;;2.60;99.90;;;;;;5089897;28;20115;-70
2024/02/27 02:00:48;;;;;;;1.83;1.13;;;2.70;99.90;;;;;;5071603;28;20047;-69
2024/02/27 02:03:17;;;;;;;0.63;0.63;;;2.70;99.90;;;;;;5088192;28;20036;-70
2024/02/27 02:05:44;;;;;;;1.85;1.23;;;2.60;99.90;;;;;;5088688;28;20055;-69
2024/02/27 02:08:10;;;;;;;2.15;1.00;;;2.60;99.90;;;;;;5071832;28;20110;-70
2024/02/27 02:10:35;;;;;;;1.40;0.68;;;2.60;99.90;;;;;;5089640;28;20131;-70
2024/02/27 02:13:02;;;;;;;6.53;1.42;;;2.60;99.90;;;;;;5088843;28;20119;-70
2024/02/27 02:15:28;;;;;;;0.68;0.63;;;2.60;99.90;;;;;;5087739;28;20032;-69
2024/02/27 02:17:54;;;;;;;0.98;0.88;;;2.60;99.90;;;;;;5089070;28;20051;-70
2024/02/27 02:20:20;;;;;;;2.28;0.32;;;2.60;99.90;;;;;;5083666;28;20043;-69
2024/02/27 02:22:45;;;;;;;1.98;0.90;;;2.60;99.90;;;;;;5107442;28;20040;-69
2024/02/27 02:25:14;;;;;;;1.90;0.88;;;2.50;99.90;;;;;;5082500;28;20032;-69
2024/02/27 02:27:45;;;;;;;0.35;0.35;;;2.60;99.90;;;;;;5086019;28;20120;-70
2024/02/27 02:30:11;;;;;;;6.43;0.70;;;2.60;99.90;;;;;;5069633;28;20127;-70
2024/02/27 02:32:47;;;;;;;1.02;0.57;;;2.60;99.90;;;;;;5089433;28;20118;-70
2024/02/27 02:35:13;;;;;;;1.13;0.88;;;2.60;99.90;;;;;;5089203;28;20040;-69
2024/02/27 02:37:40;;;;;;;0.65;0.40;;;2.50;99.90;;;;;;5090415;28;20104;-70
2024/02/27 02:40:06;;;;;;;0.50;0.50;;;2.50;99.90;;;;;;5086870;28;20024;-70
2024/02/27 02:42:33;;;;;;;0.95;0.80;;;2.50;99.90;;;;;;5089743;28;20062;-70
2024/02/27 02:44:59;;;;;;;0.55;0.55;;;2.50;99.90;;;;;;5089887;28;20101;-69
2024/02/27 02:47:24;;;;;;;2.63;1.13;;;2.50;99.90;;;;;;5090222;28;20410;-69
2024/02/27 02:49:50;;;;;;;1.45;1.02;;;2.50;99.90;;;;;;5088820;28;20059;-69
2024/02/27 02:52:16;;;;;;;1.75;1.13;;;2.50;99.90;;;;;;5087763;28;20196;-69
2024/02/27 02:54:41;;;;;;;0.40;0.30;;;2.40;99.90;;;;;;5083965;28;20102;-69
2024/02/27 02:57:07;;;;;;;0.98;0.63;;;2.50;99.90;;;;;;5085360;28;21224;-70
2024/02/27 02:59:33;;;;;;;3.15;1.05;;;2.60;99.90;;;;;;5071466;28;20070;-69
2024/02/27 03:01:59;;;;;;;1.23;0.63;;;2.60;99.90;;;;;;5071604;28;20509;-69
2024/02/27 03:04:25;;;;;;;1.75;1.30;;;2.60;99.90;;;;;;5082505;28;20036;-69
2024/02/27 03:06:50;;;;;;;0.55;0.52;;;2.60;99.90;;;;;;5088607;28;20047;-70
2024/02/27 03:09:18;;;;;;;1.23;0.80;;;2.60;99.90;;;;;;5068972;28;20069;-70
2024/02/27 03:11:43;;;;;;;2.28;0.47;;;2.60;99.90;;;;;;5088667;28;20075;-69
2024/02/27 03:14:09;;;;;;;3.78;0.75;;;2.50;99.90;;;;;;5067692;28;20090;-70
2024/02/27 03:16:35;;;;;;;1.27;0.88;;;2.50;99.90;;;;;;5084986;28;20039;-70
2024/02/27 03:19:02;;;;;;;2.55;1.50;;;2.50;99.90;;;;;;5070518;28;20428;-70
2024/02/27 03:21:28;;;;;;;0.70;0.40;;;2.50;99.90;;;;;;5085230;28;20093;-70
2024/02/27 03:23:54;;;;;;;2.15;1.23;;;2.40;99.90;;;;;;5086106;28;20472;-70
2024/02/27 03:26:21;;;;;;;2.95;0.85;;;2.30;99.90;;;;;;5085957;28;20498;-70
2024/02/27 03:28:47;;;;;;;1.48;1.13;;;2.30;99.90;;;;;;5068345;28;20040;-69
2024/02/27 03:31:12;;;;;;;1.10;0.77;;;2.30;99.90;;;;;;5088803;28;20070;-69
2024/02/27 03:33:38;;;;;;;1.58;1.48;;;2.30;99.90;;;;;;5086406;28;20040;-70
2024/02/27 03:36:04;;;;;;;2.00;0.93;;;2.30;99.90;;;;;;5087749;28;20043;-70
2024/02/27 03:38:33;;;;;;;1.30;0.75;;;2.20;99.90;;;;;;5084960;28;20036;-70
2024/02/27 03:40:59;;;;;;;1.30;0.85;;;2.20;99.90;;;;;;5087721;28;20032;-70
2024/02/27 03:43:24;;;;;;;1.27;0.98;;;2.30;99.90;;;;;;5087058;28;20038;-71
2024/02/27 03:45:50;;;;;;;1.58;1.05;;;2.20;99.90;;;;;;5088541;28;20036;-70
2024/02/27 03:48:15;;;;;;;2.25;1.27;;;2.30;99.90;;;;;;5087350;28;20040;-69
2024/02/27 03:50:42;;;;;;;0.85;0.50;;;2.40;99.90;;;;;;5087849;28;20046;-69
2024/02/27 03:53:08;;;;;;;2.33;1.00;;;2.40;99.90;;;;;;5087364;28;20137;-70
2024/02/27 03:55:33;;;;;;;1.77;1.02;;;2.40;99.90;;;;;;5086907;28;20081;-70
2024/02/27 03:57:59;;;;;;;1.27;0.65;;;2.40;99.90;;;;;;5087197;28;20366;-70
2024/02/27 04:00:25;;;;;;;1.95;1.25;;;2.40;99.90;;;;;;5086546;28;20430;-69
2024/02/27 04:02:51;;;;;;;2.72;1.00;;;2.40;99.90;;;;;;5070966;28;20105;-69
2024/02/27 04:05:17;;;;;;;1.45;0.90;;;2.40;99.90;;;;;;5101918;28;20039;-70
2024/02/27 04:07:42;;;;;;;1.10;1.00;;;2.40;99.90;;;;;;5084355;28;20044;-71
2024/02/27 04:10:08;;;;;;;2.90;1.65;;;2.40;99.90;;;;;;5067055;28;20079;-69
2024/02/27 04:12:34;;;;;;;6.13;1.30;;;2.40;99.90;;;;;;5090526;28;20038;-70
2024/02/27 04:15:00;;;;;;;4.53;1.80;;;2.30;99.90;;;;;;5086966;28;20353;-70
2024/02/27 04:17:25;;;;;;;1.13;0.82;;;2.40;99.90;;;;;;5086836;28;20423;-70
2024/02/27 04:19:51;;;;;;;2.40;1.67;;;2.30;99.90;;;;;;5085294;28;20102;-70
2024/02/27 04:22:17;;;;;;;2.70;1.30;;;2.40;99.90;;;;;;5088314;28;20083;-69
2024/02/27 04:24:42;;;;;;;2.17;1.38;;;2.40;99.90;;;;;;5067378;28;20048;-70
2024/02/27 04:27:08;;;;;;;2.25;1.35;;;2.40;99.90;;;;;;5086120;28;20495;-70
2024/02/27 04:29:34;;;;;;;1.70;1.27;;;2.30;99.90;;;;;;5084297;28;20522;-70
2024/02/27 04:32:01;;;;;;;1.35;1.25;;;2.40;99.90;;;;;;5086551;28;20044;-70
2024/02/27 04:34:27;;;;;;;2.45;1.50;;;2.30;99.90;;;;;;5086023;28;20502;-69
2024/02/27 04:36:53;;;;;;;3.00;1.33;;;2.30;99.90;;;;;;5070809;28;20032;-71
2024/02/27 04:39:18;;;;;;;6.95;2.13;;;2.30;99.90;;;;;;5083219;28;20043;-69
2024/02/27 04:41:45;;;;;;;2.58;1.52;;;2.20;99.90;;;;;;5101203;28;20135;-70
2024/02/27 04:44:11;;;;;;;2.28;1.20;;;2.20;99.90;;;;;;5083412;28;20116;-69
2024/02/27 04:46:37;;;;;;;2.72;1.70;;;2.20;99.90;;;;;;5095156;28;20055;-69
2024/02/27 04:49:03;;;;;;;2.97;1.67;;;2.10;99.90;;;;;;5087703;28;20032;-70
2024/02/27 04:51:28;;;;;;;4.55;1.20;;;2.20;99.90;;;;;;5082623;28;20406;-69
2024/02/27 04:53:54;;;;;;;2.78;1.80;;;2.20;99.90;;;;;;5090181;28;20048;-69
2024/02/27 04:56:20;;;;;;;1.88;1.38;;;2.10;99.90;;;;;;5090252;28;20063;-70
2024/02/27 04:58:45;;;;;;;2.83;1.27;;;2.20;99.90;;;;;;5106164;28;20035;-70
2024/02/27 05:01:13;;;;;;;3.40;1.13;;;2.20;99.90;;;;;;5084612;28;20042;-70
2024/02/27 05:03:40;;;;;;;7.53;1.38;;;2.30;99.90;;;;;;5072337;28;20155;-70
2024/02/27 05:06:06;;;;;;;4.35;1.35;;;2.30;99.90;;;;;;5100337;28;20535;-69
2024/02/27 05:08:31;;;;;;;1.58;0.90;;;2.40;99.90;;;;;;5074002;28;20146;-69
2024/02/27 05:10:57;;;;;;;2.50;1.55;;;2.40;99.90;;;;;;5090920;28;20036;-70
2024/02/27 05:13:26;;;;;;;3.35;1.23;;;2.30;99.90;;;;;;5091080;28;20044;-71
2024/02/27 05:15:51;;;;;;;2.92;1.10;;;2.50;99.90;;;;;;5090007;28;20046;-69
2024/02/27 05:18:18;;;;;;;3.08;1.85;;;2.60;99.90;;;;;;5091273;28;20463;-69
2024/02/27 05:20:43;;;;;;;2.03;1.17;;;2.60;99.90;;;;;;5088739;28;20071;-70
2024/02/27 05:23:09;;;;;;;2.15;1.45;;;2.60;99.90;;;;;;5088897;28;20071;-69
2024/02/27 05:25:35;;;;;;;1.13;0.82;;;2.70;99.90;;;;;;5086451;28;20688;-69
2024/02/27 05:28:00;;;;;;;2.53;1.58;;;2.70;99.90;;;;;;5087870;28;20059;-69
2024/02/27 05:30:26;;;;;;;3.70;1.40;;;2.80;99.90;;;;;;5088816;28;20039;-69
2024/02/27 05:32:52;;;;;;;4.60;1.77;;;2.80;99.90;;;;;;5086871;28;20484;-69
2024/02/27 05:35:18;;;;;;;2.10;1.38;;;2.90;99.90;;;;;;5088839;28;20040;-69
2024/02/27 05:37:43;;;;;;;3.75;1.08;;;3.00;99.90;;;;;;5089730;28;20040;-70
2024/02/27 05:40:12;;;;;;;1.08;0.80;;;3.00;99.90;;;;;;5089941;28;20467;-69
2024/02/27 05:42:38;;;;;;;3.58;1.08;;;3.00;99.90;;;;;;5081586;28;20105;-70
2024/02/27 05:45:04;;;;;;;1.85;1.17;;;3.00;99.90;;;;;;5089064;28;20442;-71
2024/02/27 05:47:30;;;;;;;1.48;1.17;;;3.10;99.90;;;;;;5085405;28;20036;-69
2024/02/27 05:49:55;;;;;;;1.88;1.33;;;3.20;99.90;;;;;;5089252;28;20075;-69
2024/02/27 05:52:21;;;;;;;2.83;1.48;;;3.20;99.90;;;;;;5088589;28;20510;-70
2024/02/27 05:54:47;;;;;;;1.90;1.30;;;3.30;99.90;;;;;;5088510;28;20058;-69
2024/02/27 05:57:13;;;;;;;2.60;1.60;;;3.30;99.90;;;;;;5087275;28;20035;-70
2024/02/27 05:59:39;;;;;;;1.67;1.13;;;3.30;99.90;;;;;;5084548;28;20114;-69
2024/02/27 06:02:05;;;;;;;2.65;1.27;;;3.40;99.90;;;;;;5088550;28;20051;-69
2024/02/27 06:04:32;;;;;;;3.15;1.90;;;3.40;99.90;;;;;;5105947;28;20055;-68
2024/02/27 06:06:58;;;;;;;2.30;1.02;;;3.50;99.90;;;;;;5087772;28;20067;-69
2024/02/27 06:09:24;;;;;;;4.18;1.23;;;3.50;99.90;;;;;;5086326;28;20094;-69
2024/02/27 06:11:50;;;;;;;2.28;1.10;;;3.60;99.90;;;;;;5090023;28;20039;-68
2024/02/27 06:14:15;;;;;;;2.17;1.33;;;3.70;99.90;;;;;;5088865;28;20460;-69
2024/02/27 06:16:41;;;;;;;2.10;1.10;;;3.60;99.90;;;;;;5090846;28;20601;-68
2024/02/27 06:19:07;;;;;;;4.38;2.13;;;3.60;99.90;;;;;;5087419;28;20036;-69
2024/02/27 06:24:18;;;;;;;2.33;1.70;;;3.70;99.90;;;;;;5087160;28;20060;-68
2024/02/27 06:26:43;;;;;;;2.58;1.75;;;3.80;99.90;;;;;;5072410;28;20570;-68
2024/02/27 06:29:09;;;;;;;1.88;1.33;;;3.80;99.90;;;;;;5086695;28;20118;-67
2024/02/27 06:31:35;;;;;;;1.38;1.02;;;3.80;99.90;;;;;;5102038;28;20035;-68
2024/02/27 06:34:03;;;;;;;4.25;2.17;;;3.90;99.90;;;;;;5071952;28;20040;-69
2024/02/27 06:36:30;;;;;;;5.20;2.65;;;3.90;99.90;;;;;;5082815;28;20044;-68
2024/02/27 06:39:00;;;;;;;1.63;1.45;;;3.90;99.90;;;;;;5086763;28;20418;-68
2024/02/27 06:41:26;;;;;;;10.05;2.03;;;4.00;99.90;;;;;;5065679;28;20028;-69
2024/02/27 06:43:52;;;;;;;1.20;1.05;;;4.00;99.90;;;;;;5085013;28;20377;-68
2024/02/27 06:46:17;;;;;;;1.15;0.63;;;4.10;99.90;;;;;;5087627;28;20040;-68
2024/02/27 06:48:43;;;;;;;4.93;2.05;;;4.10;99.90;;;;;;5087188;28;20048;-70
2024/02/27 06:51:09;;;;;;;1.33;0.95;;;4.10;99.90;;;;;;5086821;28;20060;-68
2024/02/27 06:53:35;;;;;;;3.30;0.63;;;4.10;99.90;;;;;;5086429;28;20044;-68
2024/02/27 06:56:02;;;;;;;1.60;0.98;;;4.10;99.90;;;;;;5083935;28;20047;-68
2024/02/27 06:58:28;;;;;;;3.10;1.55;;;4.10;99.90;;;;;;5087661;28;20554;-68
2024/02/27 07:00:54;;;;;;;2.65;2.03;;;4.20;99.90;;;;;;5086062;28;20454;-68
2024/02/27 07:03:20;;;;;;;1.50;1.02;;;4.20;99.90;;;;;;5089147;28;20127;-67
2024/02/27 07:05:46;;;;;;;2.85;1.58;;;4.20;99.90;;;;;;5101814;28;20063;-67
2024/02/27 07:08:11;;;;;;;3.05;1.58;;;4.30;99.90;;;;;;5088855;28;20048;-67
2024/02/27 07:10:38;;;;;;;2.55;1.83;;;4.30;99.90;;;;;;5084116;28;20601;-67
2024/02/27 07:13:09;;;;;;;2.10;1.50;;;4.40;99.90;;;;;;5089179;28;20043;-67
2024/02/27 07:15:35;;;;;;;2.78;1.77;;;4.40;99.90;;;;;;5086604;28;20075;-67
2024/02/27 07:18:01;;;;;;;3.95;1.80;;;4.50;99.90;;;;;;5087954;28;20067;-68
2024/02/27 07:20:27;;;;;;;1.77;1.23;;;4.50;99.90;;;;;;5086157;28;20115;-68
2024/02/27 07:22:54;;;;;;;2.80;1.50;;;4.50;99.90;;;;;;5090105;28;20075;-68
2024/02/27 07:25:20;;;;;;;2.45;1.63;;;4.50;99.90;;;;;;5085441;28;20070;-68
2024/02/27 07:27:48;;;;;;;3.90;1.95;;;4.60;99.90;;;;;;5087881;28;20072;-68
2024/02/27 07:30:14;;;;;;;2.58;1.52;;;4.60;99.90;;;;;;5086412;28;20115;-67
2024/02/27 07:32:41;;;;;;;1.33;1.05;;;4.70;99.90;;;;;;5088783;28;20043;-68
2024/02/27 07:35:10;;;;;;;2.10;1.10;;;4.70;99.90;;;;;;5086286;28;20036;-67
2024/02/27 07:37:35;;;;;;;1.30;1.02;;;4.70;99.90;;;;;;5101747;28;20110;-68
2024/02/27 07:40:02;;;;;;;2.22;1.40;;;4.80;99.90;;;;;;5086766;28;20119;-68
2024/02/27 07:42:28;;;;;;;4.53;1.73;;;4.80;99.90;;;;;;5086487;28;20496;-68
2024/02/27 07:44:53;;;;;;;5.20;1.70;;;4.80;99.90;;;;;;5087387;28;20042;-68
2024/02/27 07:47:19;;;;;;;3.60;1.75;;;4.80;99.90;;;;;;5104250;28;20031;-67
2024/02/27 07:49:46;;;;;;;2.92;1.80;;;4.90;99.90;;;;;;5088012;28;20044;-69
2024/02/27 07:52:15;;;;;;;7.38;2.08;;;4.90;99.90;;;;;;5086741;28;20110;-69
2024/02/27 07:54:42;;;;;;;1.75;1.27;;;4.90;99.90;;;;;;5086799;28;20048;-68
2024/02/27 07:57:07;;;;;;;3.75;1.48;;;4.90;99.90;;;;;;5087771;28;20139;-68
2024/02/27 07:59:34;;;;;;;2.45;1.77;;;5.00;99.90;;;;;;5087873;28;20132;-68
2024/02/27 08:01:59;;;;;;;3.65;2.05;;;5.00;99.90;;;;;;5086320;28;20042;-68
2024/02/27 08:04:25;;;;;;;3.88;1.88;;;5.00;99.90;;;;;;5088070;28;20122;-68
2024/02/27 08:06:51;;;;;;;2.70;1.90;;;5.10;99.90;;;;;;5087555;28;20036;-69
2024/02/27 08:09:17;;;;;;;1.75;1.60;;;5.10;99.90;;;;;;5085584;28;20597;-67
2024/02/27 08:11:43;;;;;;;2.78;1.50;;;5.10;99.90;;;;;;5086261;28;20514;-70
2024/02/27 08:14:09;;;;;;;2.63;1.80;;;5.10;99.90;;;;;;5085165;28;20072;-68
2024/02/27 08:16:34;;;;;;;1.83;1.35;;;5.20;99.90;;;;;;5086960;28;20078;-68
2024/02/27 08:19:04;;;;;;;3.28;1.48;;;5.10;99.90;;;;;;5086982;28;20507;-68
2024/02/27 08:21:36;;;;;;;2.42;1.20;;;5.20;99.90;;;;;;5087704;28;20080;-67
2024/02/27 08:24:02;;;;;;;4.00;2.00;;;5.10;99.90;;;;;;5087022;28;20044;-68
2024/02/27 08:26:28;;;;;;;7.72;1.63;;;5.20;99.90;;;;;;5085061;28;20100;-68
2024/02/27 08:28:55;;;;;;;4.05;2.28;;;5.20;99.90;;;;;;5088876;28;20044;-68
2024/02/27 08:31:22;;;;;;;2.17;1.40;;;5.20;99.90;;;;;;5090950;28;20058;-68
2024/02/27 08:33:49;;;;;;;2.58;1.75;;;5.20;99.90;;;;;;5089054;28;20040;-67
2024/02/27 08:36:14;;;;;;;2.92;1.90;;;5.20;99.90;;;;;;5092849;28;20063;-68
2024/02/27 08:38:43;;;;;;;2.65;1.45;;;5.20;99.90;;;;;;5070603;28;20040;-67
2024/02/27 08:41:09;;;;;;;3.50;1.77;;;5.20;99.90;;;;;;5091630;28;20115;-68
2024/02/27 08:43:38;;;;;;;2.83;1.80;;;5.20;99.90;;;;;;5089949;28;20051;-68
2024/02/27 08:46:04;;;;;;;3.22;1.88;;;5.30;99.90;;;;;;5072855;28;20051;-67
2024/02/27 08:48:29;;;;;;;6.82;2.72;;;5.30;99.90;;;;;;5068733;28;20040;-68
2024/02/27 08:50:55;;;;;;;4.40;2.35;;;5.30;99.90;;;;;;5090442;28;20063;-69
2024/02/27 08:53:22;;;;;;;3.28;2.20;;;5.30;99.90;;;;;;5076347;28;20054;-68
2024/02/27 08:55:48;;;;;;;2.40;1.70;;;5.30;99.90;;;;;;5091402;28;20460;-67
2024/02/27 08:58:13;;;;;;;3.25;1.45;;;5.30;99.90;;;;;;5085437;28;20123;-67
2024/02/27 09:00:40;;;;;;;1.33;1.23;;;5.30;99.90;;;;;;5074342;28;20040;-69
2024/02/27 09:03:07;;;;;;;2.15;1.75;;;5.40;99.90;;;;;;5087221;28;20043;-68
2024/02/27 09:05:33;;;;;;;3.70;2.05;;;5.40;99.90;;;;;;5104990;28;20036;-68
2024/02/27 09:07:59;;;;;;;4.40;2.42;;;5.50;99.90;;;;;;5090448;28;20039;-68
2024/02/27 09:10:25;;;;;;;6.93;2.42;;;5.50;99.90;;;;;;5107745;28;20067;-69
2024/02/27 09:12:51;;;;;;;2.83;1.73;;;5.50;99.90;;;;;;5088730;28;20040;-68
2024/02/27 09:15:18;;;;;;;4.10;2.15;;;5.40;99.90;;;;;;5086576;28;20047;-68
2024/02/27 09:17:43;;;;;;;2.42;1.67;;;5.50;99.90;;;;;;5091701;28;20154;-68
2024/02/27 09:20:10;;;;;;;4.13;2.30;;;5.50;99.90;;;;;;5103866;28;20059;-68
2024/02/27 09:22:37;;;;;;;2.22;1.60;;;5.60;99.90;;;;;;5091252;28;20542;-69
2024/02/27 09:25:03;;;;;;;4.97;2.25;;;5.50;99.90;;;;;;5085153;28;20044;-68
2024/02/27 09:27:31;;;;;;;6.25;2.25;;;5.60;99.90;;;;;;5090230;28;20043;-68
2024/02/27 09:29:57;;;;;;;3.03;1.60;;;5.70;99.90;;;;;;5103275;28;20139;-69
2024/02/27 09:32:22;;;;;;;4.47;2.58;;;5.70;99.90;;;;;;5104224;28;20563;-68
2024/02/27 09:34:51;;;;;;;4.07;1.52;;;5.80;99.90;;;;;;5089147;28;20040;-68
2024/02/27 09:37:18;;;;;;;3.17;1.98;;;5.80;99.90;;;;;;5088517;28;20032;-68
2024/02/27 09:39:44;;;;;;;3.45;2.20;;;5.80;99.90;;;;;;5086871;28;20036;-68
2024/02/27 09:42:12;;;;;;;2.20;1.52;;;5.80;99.90;;;;;;5091375;28;20090;-68
2024/02/27 09:44:41;;;;;;;4.63;2.78;;;5.70;99.90;;;;;;5105129;28;20123;-68
2024/02/27 09:47:11;;;;;;;2.50;1.60;;;5.70;99.90;;;;;;5089166;28;20495;-68
2024/02/27 09:49:41;;;;;;;2.17;1.58;;;5.70;99.90;;;;;;5088196;28;20055;-68
2024/02/27 09:52:10;;;;;;;1.98;1.40;;;5.70;99.90;;;;;;5091550;28;20414;-69
2024/02/27 09:54:37;;;;;;;3.60;1.80;;;5.80;99.90;;;;;;5087166;28;20044;-68
2024/02/27 09:57:04;;;;;;;3.25;1.77;;;5.70;99.90;;;;;;5103834;28;20044;-68
2024/02/27 09:59:31;;;;;;;4.60;2.22;;;5.80;99.90;;;;;;5087383;28;20152;-68
2024/02/27 10:02:12;;;;;;;3.65;2.17;;;5.80;99.90;;;;;;5085815;28;20112;-69
2024/02/27 10:04:39;;;;;;;3.40;1.55;;;5.80;99.90;;;;;;5087530;28;20131;-68
2024/02/27 10:07:05;;;;;;;3.35;2.03;;;5.80;99.90;;;;;;5103251;28;20048;-68
2024/02/27 10:09:37;;;;;;;3.55;2.53;;;5.90;99.90;;;;;;5082020;28;20044;-69
2024/02/27 10:12:04;;;;;;;4.32;2.00;;;5.90;99.90;;;;;;5086872;28;20044;-68
2024/02/27 10:14:34;;;;;;;3.20;2.08;;;5.90;99.90;;;;;;5088814;28;20487;-67
2024/02/27 10:17:03;;;;;;;5.82;3.20;;;6.00;99.90;;;;;;5101384;28;20024;-68
2024/02/27 10:19:33;;;;;;;4.55;2.95;;;6.10;99.90;;;;;;5086724;28;20047;-67
2024/02/27 10:22:00;;;;;;;5.82;2.75;;;6.10;99.90;;;;;;5087585;28;20071;-69
2024/02/27 10:24:27;;;;;;;3.03;2.08;;;6.10;99.90;;;;;;5089275;28;20032;-68
2024/02/27 10:26:58;;;;;;;3.25;2.33;;;6.20;99.90;;;;;;5088628;28;20074;-68
2024/02/27 10:29:25;;;;;;;5.00;2.75;;;6.30;99.90;;;;;;5074378;28;20112;-68
2024/02/27 10:31:51;;;;;;;4.47;2.60;;;6.50;99.90;;;;;;5071010;28;20044;-68
2024/02/27 10:34:18;;;;;;;4.50;2.67;;;6.80;99.90;;;;;;5087779;28;20459;-69
2024/02/27 10:36:44;;;;;;;7.72;2.58;;;6.80;99.90;;;;;;5086491;28;20047;-70
2024/02/27 10:39:10;;;;;;;4.78;2.85;;;6.90;99.90;;;;;;5085946;28;20032;-69
2024/02/27 10:41:42;;;;;;;3.50;2.55;;;7.00;99.90;;;;;;5088721;28;20379;-69
2024/02/27 10:44:08;;;;;;;4.22;3.08;;;7.00;99.90;;;;;;5087159;28;21673;-68
2024/02/27 10:46:36;;;;;;;4.18;2.75;;;7.10;99.90;;;;;;5088215;28;20040;-68
2024/02/27 10:49:04;;;;;;;3.85;2.60;;;7.10;99.90;;;;;;5088536;28;20403;-68
2024/02/27 10:51:31;;;;;;;5.43;2.40;;;7.20;99.90;;;;;;5069167;28;20051;-68
2024/02/27 10:53:58;;;;;;;3.58;2.10;;;7.40;99.90;;;;;;5083983;28;20079;-69
2024/02/27 10:56:25;;;;;;;3.33;1.70;;;7.50;99.90;;;;;;5086337;28;20052;-68
2024/02/27 10:58:52;;;;;;;3.97;2.65;;;7.60;99.90;;;;;;5085880;28;20048;-68
2024/02/27 11:01:19;;;;;;;3.08;1.90;;;7.70;99.90;;;;;;5086603;28;20107;-70
2024/02/27 11:03:50;;;;;;;4.07;2.78;;;7.80;99.90;;;;;;5102655;28;20104;-68
2024/02/27 11:06:22;;;;;;;4.30;2.78;;;7.70;99.90;;;;;;5086381;28;20032;-69
2024/02/27 11:08:51;;;;;;;2.85;2.15;;;7.60;99.90;;;;;;5071402;28;20047;-70
2024/02/27 11:11:17;;;;;;;3.85;2.25;;;7.60;99.90;;;;;;5088874;28;20443;-69
2024/02/27 11:13:48;;;;;;;4.07;2.63;;;7.60;99.90;;;;;;5087325;28;20147;-69
2024/02/27 11:16:16;;;;;;;3.85;2.10;;;7.70;99.90;;;;;;5072281;28;20071;-69
2024/02/27 11:18:47;;;;;;;3.70;2.78;;;7.80;99.90;;;;;;5082787;28;20427;-69
2024/02/27 11:21:13;;;;;;;3.63;2.33;;;7.80;99.90;;;;;;5087713;28;20119;-68
2024/02/27 11:23:39;;;;;;;3.85;2.25;;;7.80;99.90;;;;;;5085888;28;20036;-70
2024/02/27 11:26:06;;;;;;;3.55;1.92;;;7.90;99.90;;;;;;5085519;28;20496;-69
2024/02/27 11:28:32;;;;;;;3.92;2.22;;;8.00;99.90;;;;;;5104049;28;20392;-68
2024/02/27 11:30:58;;;;;;;2.80;2.45;;;8.00;99.90;;;;;;5088311;28;20115;-69
2024/02/27 11:33:24;;;;;;;3.70;2.35;;;8.00;99.90;;;;;;5086396;28;20044;-69
2024/02/27 11:35:50;;;;;;;4.18;2.67;;;7.90;99.90;;;;;;5085385;28;20387;-69
2024/02/27 11:38:20;;;;;;;3.58;2.42;;;7.90;99.90;;;;;;5088005;28;20036;-68
2024/02/27 11:40:52;;;;;;;6.25;1.77;;;8.10;99.90;;;;;;5078294;28;20044;-68
2024/02/27 11:43:19;;;;;;;2.58;1.58;;;8.40;99.90;;;;;;5086084;28;20044;-69
2024/02/27 11:45:45;;;;;;;3.78;2.17;;;8.70;99.90;;;;;;5084200;28;20486;-68
2024/02/27 11:48:11;;;;;;;3.53;2.53;;;9.00;99.90;;;;;;5087305;28;20352;-68
2024/02/27 11:50:36;;;;;;;3.20;2.35;;;9.20;99.90;;;;;;5087286;28;20124;-69
2024/02/27 11:53:20;;;;;;;5.15;2.90;;;9.00;99.90;;;;;;5082391;28;20055;-69
2024/02/27 11:55:49;;;;;;;3.45;2.17;;;9.00;99.90;;;;;;5084439;28;20047;-69
2024/02/27 11:58:16;;;;;;;2.78;1.85;;;9.10;99.90;;;;;;5083766;28;20032;-69
2024/02/27 12:00:46;;;;;;;3.97;2.03;;;9.00;99.90;;;;;;5052001;28;20123;-70
2024/02/27 12:03:12;;;;;;;2.70;1.73;;;8.90;99.90;;;;;;5088209;28;20511;-69
2024/02/27 12:05:38;;;;;;;4.38;2.72;;;8.90;99.90;;;;;;5070667;28;20300;-69
2024/02/27 12:08:05;;;;;;;4.22;1.73;;;9.00;99.90;;;;;;5088920;28;20036;-70
2024/02/27 12:10:31;;;;;;;3.35;2.10;;;9.30;99.90;;;;;;5084966;28;20032;-69
2024/02/27 12:12:57;;;;;;;5.78;2.28;;;10.40;99.90;;;;;;5089089;28;20102;-69
2024/02/27 12:15:23;;;;;;;4.10;2.13;;;11.30;99.90;;;;;;5086834;28;20059;-70
2024/02/27 12:17:49;;;;;;;3.33;2.08;;;11.30;99.90;;;;;;5102027;28;20045;-70
2024/02/27 12:20:15;;;;;;;4.80;2.47;;;11.00;99.90;;;;;;5086516;28;20097;-69
2024/02/27 12:22:44;;;;;;;4.25;2.60;;;10.70;99.90;;;;;;5085487;28;20046;-69
2024/02/27 12:25:09;;;;;;;3.25;2.03;;;10.50;99.90;;;;;;5085561;28;20040;-70
2024/02/27 12:27:36;;;;;;;3.03;1.63;;;11.30;99.90;;;;;;5104966;28;20145;-70
2024/02/27 12:30:12;;;;;;;4.97;2.33;;;12.60;99.90;;;;;;5068473;28;20123;-70
2024/02/27 12:32:48;;;;;;;6.75;2.05;;;13.00;99.90;;;;;;5085673;28;20055;-70
2024/02/27 12:35:15;;;;;;;3.25;2.53;;;12.50;99.90;;;;;;5080551;28;20046;-70
2024/02/27 12:37:42;;;;;;;4.93;2.28;;;12.20;99.90;;;;;;5086313;28;20376;-70
2024/02/27 12:40:11;;;;;;;3.80;1.80;;;12.40;99.90;;;;;;5068272;28;20031;-70
2024/02/27 12:42:42;;;;;;;4.25;2.30;;;12.80;99.90;;;;;;5070903;28;20069;-71
2024/02/27 12:45:11;;;;;;;2.70;1.77;;;12.90;99.90;;;;;;5066003;28;20032;-71
2024/02/27 12:47:38;;;;;;;3.88;1.77;;;13.40;99.90;;;;;;5086724;28;20048;-70
2024/02/27 12:50:06;;;;;;;4.03;2.17;;;13.80;99.90;;;;;;5086658;28;20043;-70
2024/02/27 12:52:32;;;;;;;2.17;1.67;;;13.80;99.90;;;;;;5085819;28;20048;-70
2024/02/27 12:54:57;;;;;;;3.03;1.77;;;13.30;99.90;;;;;;5086451;28;20048;-70